createdAt,value
2023-02-12T00:00:39.465Z,4.93
2023-02-12T00:03:05.340Z,4.81
2023-02-12T00:05:31.756Z,4.82
2023-02-12T00:07:58.019Z,4.91
2023-02-12T00:10:23.955Z,4.82
2023-02-12T00:12:50.174Z,4.85
2023-02-12T00:15:16.054Z,4.83
2023-02-12T00:17:41.839Z,4.93
2023-02-12T00:20:08.066Z,4.85
2023-02-12T00:22:33.907Z,4.82
2023-02-12T00:24:59.707Z,4.82
2023-02-12T00:27:25.652Z,4.87
2023-02-12T00:29:51.522Z,4.86
2023-02-12T00:32:18.888Z,4.81
2023-02-12T00:34:46.094Z,4.84
2023-02-12T00:37:12.862Z,4.86
2023-02-12T00:39:38.800Z,4.85
2023-02-12T00:42:04.758Z,4.89
2023-02-12T00:44:30.634Z,4.83
2023-02-12T00:46:57.170Z,4.85
2023-02-12T00:49:23.598Z,4.84
2023-02-12T00:51:49.486Z,4.88
2023-02-12T00:54:15.398Z,4.86
2023-02-12T00:56:41.533Z,4.89
2023-02-12T00:59:07.722Z,4.86
2023-02-12T01:01:33.720Z,4.93
2023-02-12T01:03:59.650Z,4.90
2023-02-12T01:06:25.608Z,4.87
2023-02-12T01:08:52.249Z,4.90
2023-02-12T01:11:18.889Z,4.91
2023-02-12T01:13:44.799Z,4.97
2023-02-12T01:16:16.859Z,4.90
2023-02-12T01:18:43.183Z,4.92
2023-02-12T01:21:14.195Z,4.96
2023-02-12T01:23:41.176Z,4.86
2023-02-12T01:26:09.905Z,4.83
2023-02-12T01:28:37.355Z,4.86
2023-02-12T01:31:15.032Z,4.89
2023-02-12T01:33:42.804Z,4.89
2023-02-12T01:36:10.413Z,4.89
2023-02-12T01:38:36.405Z,4.87
2023-02-12T01:41:11.731Z,4.93
2023-02-12T01:43:38.259Z,4.96
2023-02-12T01:46:05.096Z,4.96
2023-02-12T01:48:38.348Z,4.94
2023-02-12T01:51:06.749Z,4.89
2023-02-12T01:53:36.386Z,4.93
2023-02-12T01:56:03.300Z,4.99
2023-02-12T01:58:37.100Z,4.95
2023-02-12T02:01:05.666Z,4.97
2023-02-12T02:03:33.462Z,4.92
2023-02-12T02:06:05.707Z,4.92
2023-02-12T02:08:33.376Z,5.00
2023-02-12T02:10:59.140Z,4.96
2023-02-12T02:13:44.116Z,4.97
2023-02-12T02:16:27.091Z,4.96
2023-02-12T02:18:59.760Z,4.97
2023-02-12T02:21:46.370Z,4.99
2023-02-12T02:24:36.353Z,4.92
2023-02-12T02:27:19.076Z,4.89
2023-02-12T02:30:33.200Z,4.94
2023-02-12T02:33:29.646Z,4.91
2023-02-12T02:36:04.369Z,4.94
2023-02-12T02:38:41.986Z,4.98
2023-02-12T02:41:17.364Z,5.02
2023-02-12T02:43:52.590Z,4.99
2023-02-12T02:46:30.229Z,4.98
2023-02-12T02:49:00.361Z,4.95
2023-02-12T02:51:33.859Z,4.92
2023-02-12T02:54:25.166Z,4.96
2023-02-12T02:56:54.530Z,4.95
2023-02-12T02:59:26.834Z,4.96
2023-02-12T03:01:58.396Z,4.99
2023-02-12T03:04:38.309Z,4.98
2023-02-12T03:07:10.851Z,5.00
2023-02-12T03:09:41.164Z,5.02
2023-02-12T03:12:17.725Z,4.99
2023-02-12T03:15:06.976Z,4.90
2023-02-12T03:17:44.551Z,4.95
2023-02-12T03:20:14.374Z,4.92
2023-02-12T03:22:46.227Z,4.95
2023-02-12T03:25:15.438Z,5.00
2023-02-12T03:27:47.358Z,4.97
2023-02-12T03:30:13.603Z,5.00
2023-02-12T03:32:51.567Z,5.03
2023-02-12T03:35:24.530Z,5.02
2023-02-12T03:38:00.054Z,4.98
2023-02-12T03:40:25.695Z,5.00
2023-02-12T03:43:03.472Z,4.96
2023-02-12T03:45:55.191Z,4.98
2023-02-12T03:48:29.568Z,5.01
2023-02-12T03:51:13.910Z,4.97
2023-02-12T03:53:41.991Z,4.99
2023-02-12T03:56:15.565Z,5.03
2023-02-12T03:58:43.476Z,5.03
2023-02-12T04:01:10.719Z,5.03
2023-02-12T04:03:37.165Z,5.05
2023-02-12T04:06:03.196Z,5.01
2023-02-12T04:08:31.146Z,4.97
2023-02-12T04:11:32.102Z,4.93
2023-02-12T04:14:19.485Z,4.89
2023-02-12T04:16:54.083Z,4.91
2023-02-12T04:19:31.932Z,4.88
2023-02-12T04:22:30.720Z,4.88
2023-02-12T04:25:09.172Z,4.91
2023-02-12T04:27:41.917Z,4.89
2023-02-12T04:30:13.697Z,4.95
2023-02-12T04:33:02.982Z,4.91
2023-02-12T04:35:40.714Z,4.85
2023-02-12T04:38:17.676Z,4.84
2023-02-12T04:40:44.014Z,4.90
2023-02-12T04:43:10.305Z,4.86
2023-02-12T04:45:37.131Z,4.87
2023-02-12T04:48:04.824Z,4.75
2023-02-12T04:50:42.347Z,4.78
2023-02-12T04:53:09.248Z,4.81
2023-02-12T04:55:35.107Z,4.86
2023-02-12T04:58:01.189Z,4.93
2023-02-12T05:00:26.993Z,4.85
2023-02-12T05:02:52.791Z,4.88
2023-02-12T05:05:18.690Z,4.89
2023-02-12T05:07:44.473Z,4.95
2023-02-12T05:10:10.486Z,4.95
2023-02-12T05:12:36.464Z,4.95
2023-02-12T05:15:02.381Z,4.95
2023-02-12T05:17:28.118Z,4.95
2023-02-12T05:19:53.956Z,4.99
2023-02-12T05:22:19.820Z,4.96
2023-02-12T05:24:46.221Z,4.98
2023-02-12T05:27:12.418Z,4.95
2023-02-12T05:29:38.225Z,4.92
2023-02-12T05:32:04.580Z,4.91
2023-02-12T05:34:30.474Z,4.90
2023-02-12T05:36:56.252Z,4.92
2023-02-12T05:39:22.049Z,4.92
2023-02-12T05:41:49.013Z,4.93
2023-02-12T05:44:15.091Z,4.98
2023-02-12T05:46:41.650Z,4.89
2023-02-12T05:49:08.341Z,4.91
2023-02-12T05:51:34.309Z,4.95
2023-02-12T05:54:03.025Z,4.94
2023-02-12T05:56:44.427Z,4.93
2023-02-12T05:59:17.239Z,4.96
2023-02-12T06:01:45.310Z,4.96
2023-02-12T06:04:22.852Z,4.96
2023-02-12T06:06:49.955Z,4.95
2023-02-12T06:09:15.867Z,4.98
2023-02-12T06:11:41.925Z,4.95
2023-02-12T06:14:11.556Z,4.96
2023-02-12T06:16:37.590Z,4.95
2023-02-12T06:19:04.884Z,4.95
2023-02-12T06:21:31.351Z,4.97
2023-02-12T06:23:57.337Z,4.94
2023-02-12T06:26:23.953Z,4.95
2023-02-12T06:28:50.685Z,4.90
2023-02-12T06:31:20.785Z,4.91
2023-02-12T06:33:47.252Z,4.90
2023-02-12T06:36:13.021Z,4.94
2023-02-12T06:38:39.054Z,4.80
2023-02-12T06:41:04.837Z,4.82
2023-02-12T06:43:30.768Z,4.86
2023-02-12T06:46:00.485Z,4.86
2023-02-12T06:48:26.338Z,4.87
2023-02-12T06:50:52.156Z,4.87
2023-02-12T06:53:18.065Z,4.89
2023-02-12T06:55:43.821Z,4.86
2023-02-12T06:58:09.784Z,4.84
2023-02-12T07:00:35.569Z,4.91
2023-02-12T07:03:01.402Z,4.87
2023-02-12T07:05:27.328Z,4.90
2023-02-12T07:07:53.503Z,4.88
2023-02-12T07:10:19.486Z,4.86
2023-02-12T07:12:45.814Z,4.90
2023-02-12T07:15:12.168Z,4.92
2023-02-12T07:17:38.035Z,4.94
2023-02-12T07:20:04.596Z,4.84
2023-02-12T07:22:30.477Z,4.92
2023-02-12T07:24:56.404Z,4.97
2023-02-12T07:27:22.247Z,4.95
2023-02-12T07:29:47.981Z,5.00
2023-02-12T07:32:13.770Z,5.01
2023-02-12T07:34:39.593Z,5.00
2023-02-12T07:37:06.777Z,4.98
2023-02-12T07:39:32.598Z,4.97
2023-02-12T07:41:58.419Z,5.02
2023-02-12T07:44:24.321Z,5.01
2023-02-12T07:46:50.254Z,5.04
2023-02-12T07:49:18.950Z,5.07
2023-02-12T07:51:45.668Z,5.04
2023-02-12T07:54:12.403Z,5.06
2023-02-12T07:56:40.392Z,5.07
2023-02-12T07:59:10.022Z,5.06
2023-02-12T08:01:41.328Z,5.08
2023-02-12T08:04:10.313Z,5.06
2023-02-12T08:06:39.319Z,5.11
2023-02-12T08:09:09.170Z,5.14
2023-02-12T08:11:36.332Z,5.09
2023-02-12T08:14:03.310Z,5.10
2023-02-12T08:16:29.742Z,5.06
2023-02-12T08:19:00.616Z,5.11
2023-02-12T08:21:30.449Z,5.14
2023-02-12T08:23:57.892Z,5.22
2023-02-12T08:26:29.617Z,5.30
2023-02-12T08:29:01.934Z,5.24
2023-02-12T08:31:31.077Z,5.32
2023-02-12T08:33:57.585Z,5.30
2023-02-12T08:36:36.163Z,5.41
2023-02-12T08:39:02.165Z,5.41
2023-02-12T08:41:28.962Z,5.42
2023-02-12T08:43:57.643Z,5.37
2023-02-12T08:46:28.649Z,5.49
2023-02-12T08:48:56.874Z,5.52
2023-02-12T08:51:26.039Z,5.51
2023-02-12T08:53:55.117Z,5.52
2023-02-12T08:56:22.139Z,5.59
2023-02-12T08:58:48.106Z,5.62
2023-02-12T09:01:17.269Z,5.59
2023-02-12T09:03:44.898Z,5.58
2023-02-12T09:06:11.979Z,5.51
2023-02-12T09:08:38.624Z,5.63
2023-02-12T09:11:11.933Z,5.69
2023-02-12T09:13:39.384Z,5.86
2023-02-12T09:16:06.173Z,5.82
2023-02-12T09:18:32.665Z,5.84
2023-02-12T09:21:10.592Z,5.75
2023-02-12T09:23:37.242Z,5.71
2023-02-12T09:26:05.076Z,5.68
2023-02-12T09:28:30.982Z,5.76
2023-02-12T09:30:57.039Z,5.75
2023-02-12T09:33:22.988Z,5.78
2023-02-12T09:35:49.306Z,5.81
2023-02-12T09:38:15.190Z,5.95
2023-02-12T09:41:10.707Z,6.04
2023-02-12T09:43:47.999Z,6.21
2023-02-12T09:46:24.973Z,6.28
2023-02-12T09:49:08.651Z,6.31
2023-02-12T09:51:36.075Z,6.26
2023-02-12T09:54:19.046Z,6.29
2023-02-12T09:56:51.850Z,6.37
2023-02-12T09:59:31.038Z,6.51
2023-02-12T10:01:58.106Z,6.61
2023-02-12T10:04:26.633Z,6.60
2023-02-12T10:07:18.137Z,6.38
2023-02-12T10:10:02.163Z,6.49
2023-02-12T10:12:40.462Z,6.46
2023-02-12T10:15:16.257Z,6.34
2023-02-12T10:17:50.358Z,6.43
2023-02-12T10:20:28.027Z,6.46
2023-02-12T10:23:03.701Z,6.43
2023-02-12T10:25:32.290Z,6.42
2023-02-12T10:28:06.830Z,6.45
2023-02-12T10:30:49.215Z,6.51
2023-02-12T10:33:28.963Z,6.63
2023-02-12T10:36:36.555Z,6.69
2023-02-12T10:39:12.664Z,6.68
2023-02-12T10:41:50.160Z,6.55
2023-02-12T10:44:16.007Z,6.51
2023-02-12T10:46:41.938Z,6.46
2023-02-12T10:49:10.820Z,6.48
2023-02-12T10:52:01.667Z,6.56
2023-02-12T10:54:40.192Z,6.57
2023-02-12T10:57:28.858Z,6.62
2023-02-12T10:59:56.751Z,6.59
2023-02-12T11:02:31.821Z,6.57
2023-02-12T11:05:00.424Z,6.53
2023-02-12T11:07:27.787Z,6.59
2023-02-12T11:09:55.918Z,6.69
2023-02-12T11:12:40.256Z,6.67
2023-02-12T11:15:14.787Z,6.56
2023-02-12T11:17:44.128Z,6.58
2023-02-12T11:20:16.081Z,6.48
2023-02-12T11:22:51.941Z,6.43
2023-02-12T11:25:18.006Z,6.40
2023-02-12T11:27:44.092Z,6.36
2023-02-12T11:30:10.066Z,6.43
2023-02-12T11:32:36.683Z,6.46
2023-02-12T11:35:10.351Z,6.52
2023-02-12T11:37:41.378Z,6.31
2023-02-12T11:40:16.131Z,6.43
2023-02-12T11:42:48.692Z,6.36
2023-02-12T11:45:20.927Z,6.42
2023-02-12T11:47:47.762Z,6.22
2023-02-12T11:50:32.624Z,6.29
2023-02-12T11:53:06.219Z,6.19
2023-02-12T11:55:39.279Z,6.22
2023-02-12T11:58:16.922Z,6.11
2023-02-12T12:00:53.947Z,6.24
2023-02-12T12:03:36.719Z,6.17
2023-02-12T12:06:29.047Z,6.28
2023-02-12T12:09:21.332Z,6.30
2023-02-12T12:11:55.858Z,6.43
2023-02-12T12:14:56.542Z,6.50
2023-02-12T12:17:47.985Z,6.48
2023-02-12T12:20:20.666Z,6.52
2023-02-12T12:22:52.486Z,6.51
2023-02-12T12:25:28.669Z,6.42
2023-02-12T12:28:04.906Z,6.31
2023-02-12T12:30:55.365Z,6.42
2023-02-12T12:33:21.222Z,6.50
2023-02-12T12:36:04.093Z,6.58
2023-02-12T12:38:29.941Z,6.48
2023-02-12T12:41:07.225Z,6.51
2023-02-12T12:43:45.584Z,6.59
2023-02-12T12:46:37.977Z,6.66
2023-02-12T12:49:11.729Z,6.53
2023-02-12T12:51:53.603Z,6.55
2023-02-12T12:54:22.301Z,6.55
2023-02-12T12:56:57.349Z,6.64
2023-02-12T12:59:45.134Z,6.52
2023-02-12T13:02:38.571Z,6.51
2023-02-12T13:05:31.912Z,6.52
2023-02-12T13:08:03.545Z,6.54
2023-02-12T13:10:35.095Z,6.52
2023-02-12T13:13:03.984Z,6.62
2023-02-12T13:15:40.432Z,6.59
2023-02-12T13:18:18.276Z,6.62
2023-02-12T13:21:14.875Z,6.62
2023-02-12T13:24:26.151Z,6.68
2023-02-12T13:26:56.795Z,6.50
2023-02-12T13:29:28.738Z,6.60
2023-02-12T13:32:02.000Z,6.64
2023-02-12T13:34:31.894Z,6.48
2023-02-12T13:37:02.204Z,6.22
2023-02-12T13:39:36.797Z,6.13
2023-02-12T13:42:05.598Z,6.21
2023-02-12T13:44:40.781Z,6.23
2023-02-12T13:47:48.788Z,6.21
2023-02-12T13:50:56.244Z,6.18
2023-02-12T13:53:46.400Z,6.13
2023-02-12T13:56:41.013Z,6.28
2023-02-12T13:59:31.754Z,6.35
2023-02-12T14:02:02.734Z,6.18
2023-02-12T14:04:36.986Z,6.00
2023-02-12T14:07:12.127Z,6.25
2023-02-12T14:09:44.725Z,6.17
2023-02-12T14:12:43.000Z,6.23
2023-02-12T14:15:22.156Z,6.22
2023-02-12T14:18:06.879Z,6.33
2023-02-12T14:20:39.567Z,6.22
2023-02-12T14:23:27.274Z,6.29
2023-02-12T14:25:58.520Z,6.19
2023-02-12T14:28:25.275Z,6.22
2023-02-12T14:31:19.287Z,6.26
2023-02-12T14:33:48.041Z,6.28
2023-02-12T14:36:30.560Z,6.32
2023-02-12T14:39:00.795Z,6.26
2023-02-12T14:41:40.965Z,6.31
2023-02-12T14:44:29.850Z,6.31
2023-02-12T14:46:58.479Z,6.22
2023-02-12T14:49:32.416Z,6.23
2023-02-12T14:52:13.123Z,6.24
2023-02-12T14:55:04.550Z,6.30
2023-02-12T14:57:39.488Z,6.23
2023-02-12T15:00:17.736Z,6.24
2023-02-12T15:02:50.413Z,6.25
2023-02-12T15:05:26.030Z,6.26
2023-02-12T15:07:57.764Z,6.30
2023-02-12T15:10:36.644Z,6.21
2023-02-12T15:13:21.272Z,6.15
2023-02-12T15:16:01.436Z,6.14
2023-02-12T15:18:42.214Z,6.21
2023-02-12T15:21:27.259Z,6.09
2023-02-12T15:24:10.939Z,6.14
2023-02-12T15:26:41.958Z,6.11
2023-02-12T15:29:27.017Z,6.13
2023-02-12T15:31:59.423Z,6.15
2023-02-12T15:34:31.858Z,6.15
2023-02-12T15:37:00.298Z,6.13
2023-02-12T15:39:28.304Z,6.05
2023-02-12T15:41:54.388Z,6.03
2023-02-12T15:44:24.282Z,5.96
2023-02-12T15:46:56.255Z,5.89
2023-02-12T15:49:36.350Z,5.95
2023-02-12T15:52:10.714Z,6.01
2023-02-12T15:54:38.138Z,6.03
2023-02-12T15:57:11.616Z,5.99
2023-02-12T15:59:39.107Z,5.93
2023-02-12T16:02:18.127Z,5.93
2023-02-12T16:04:44.657Z,5.87
2023-02-12T16:07:12.851Z,5.91
2023-02-12T16:09:40.869Z,5.84
2023-02-12T16:12:13.927Z,5.80
2023-02-12T16:15:02.983Z,5.81
2023-02-12T16:17:32.516Z,5.84
2023-02-12T16:20:01.318Z,5.82
2023-02-12T16:22:37.356Z,5.79
2023-02-12T16:25:08.803Z,5.79
2023-02-12T16:27:34.819Z,5.72
2023-02-12T16:30:05.932Z,5.86
2023-02-12T16:32:36.186Z,5.78
2023-02-12T16:35:05.759Z,5.75
2023-02-12T16:37:34.640Z,5.76
2023-02-12T16:40:12.774Z,5.73
2023-02-12T16:42:55.519Z,5.79
2023-02-12T16:45:24.342Z,5.82
2023-02-12T16:47:51.011Z,5.86
2023-02-12T16:50:17.655Z,5.77
2023-02-12T16:52:43.725Z,5.74
2023-02-12T16:55:14.847Z,5.73
2023-02-12T16:57:40.953Z,5.63
2023-02-12T17:00:09.373Z,5.72
2023-02-12T17:02:36.665Z,5.58
2023-02-12T17:05:06.503Z,5.56
2023-02-12T17:07:33.454Z,5.57
2023-02-12T17:10:00.260Z,5.59
2023-02-12T17:12:27.214Z,5.57
2023-02-12T17:14:54.149Z,5.68
2023-02-12T17:17:23.237Z,5.61
2023-02-12T17:19:49.605Z,5.59
2023-02-12T17:22:25.253Z,5.57
2023-02-12T17:24:52.791Z,5.46
2023-02-12T17:27:22.537Z,5.45
2023-02-12T17:29:48.589Z,5.42
2023-02-12T17:32:15.535Z,5.43
2023-02-12T17:34:48.606Z,5.62
2023-02-12T17:37:16.959Z,5.51
2023-02-12T17:39:42.864Z,5.48
2023-02-12T17:42:09.005Z,5.51
2023-02-12T17:44:34.879Z,5.63
2023-02-12T17:47:00.713Z,5.56
2023-02-12T17:49:26.708Z,5.59
2023-02-12T17:51:52.590Z,5.62
2023-02-12T17:54:18.597Z,5.60
2023-02-12T17:56:44.600Z,5.60
2023-02-12T17:59:10.467Z,5.61
2023-02-12T18:01:36.442Z,5.63
2023-02-12T18:04:02.428Z,5.63
2023-02-12T18:06:29.515Z,5.67
2023-02-12T18:08:57.009Z,5.63
2023-02-12T18:11:23.366Z,5.68
2023-02-12T18:13:56.074Z,5.72
2023-02-12T18:16:24.049Z,5.68
2023-02-12T18:18:50.543Z,5.70
2023-02-12T18:21:17.088Z,5.72
2023-02-12T18:23:43.606Z,5.71
2023-02-12T18:26:16.357Z,5.75
2023-02-12T18:28:43.108Z,5.75
2023-02-12T18:31:09.818Z,5.70
2023-02-12T18:33:36.792Z,5.72
2023-02-12T18:36:14.801Z,5.73
2023-02-12T18:38:42.219Z,5.72
2023-02-12T18:41:10.539Z,5.74
2023-02-12T18:43:36.785Z,5.73
2023-02-12T18:46:08.085Z,5.72
2023-02-12T18:48:34.699Z,5.68
2023-02-12T18:51:01.853Z,5.70
2023-02-12T18:53:28.016Z,5.70
2023-02-12T18:55:53.917Z,5.73
2023-02-12T18:58:19.933Z,5.72
2023-02-12T19:00:45.851Z,5.69
2023-02-12T19:03:12.029Z,5.67
2023-02-12T19:05:37.958Z,5.69
2023-02-12T19:08:04.277Z,5.71
2023-02-12T19:10:30.151Z,5.73
2023-02-12T19:12:56.354Z,5.71
2023-02-12T19:15:23.140Z,5.73
2023-02-12T19:17:49.255Z,5.71
2023-02-12T19:20:16.247Z,5.69
2023-02-12T19:22:42.666Z,5.68
2023-02-12T19:25:09.385Z,5.74
2023-02-12T19:27:35.837Z,5.72
2023-02-12T19:30:02.238Z,5.76
2023-02-12T19:32:28.170Z,5.82
2023-02-12T19:34:54.181Z,5.74
2023-02-12T19:37:20.368Z,5.76
2023-02-12T19:39:46.313Z,5.78
2023-02-12T19:42:14.040Z,5.75
2023-02-12T19:44:40.430Z,5.77
2023-02-12T19:47:08.256Z,5.80
2023-02-12T19:49:34.542Z,5.78
2023-02-12T19:52:00.667Z,5.78
2023-02-12T19:54:26.798Z,5.80
2023-02-12T19:56:54.546Z,5.77
2023-02-12T19:59:22.151Z,5.75
2023-02-12T20:01:48.497Z,5.73
2023-02-12T20:04:17.293Z,5.75
2023-02-12T20:06:45.242Z,5.80
2023-02-12T20:09:12.707Z,5.77
2023-02-12T20:11:39.136Z,5.77
2023-02-12T20:14:08.279Z,5.78
2023-02-12T20:16:38.111Z,5.75
2023-02-12T20:19:11.963Z,5.73
2023-02-12T20:21:38.687Z,5.71
2023-02-12T20:24:05.411Z,5.68
2023-02-12T20:26:32.440Z,5.70
2023-02-12T20:28:59.870Z,5.71
2023-02-12T20:31:29.227Z,5.69
2023-02-12T20:33:57.883Z,5.69
2023-02-12T20:36:25.053Z,5.69
2023-02-12T20:38:55.265Z,5.66
2023-02-12T20:41:22.355Z,5.61
2023-02-12T20:43:59.274Z,5.49
2023-02-12T20:46:25.761Z,5.59
2023-02-12T20:48:53.629Z,5.56
2023-02-12T20:51:22.151Z,5.64
2023-02-12T20:53:49.417Z,5.59
2023-02-12T20:56:18.400Z,5.59
2023-02-12T20:58:45.332Z,5.60
2023-02-12T21:01:17.618Z,5.60
2023-02-12T21:03:44.473Z,5.57
2023-02-12T21:06:11.014Z,5.58
2023-02-12T21:08:38.782Z,5.56
2023-02-12T21:11:07.116Z,5.53
2023-02-12T21:13:33.478Z,5.65
2023-02-12T21:16:03.929Z,5.58
2023-02-12T21:18:30.007Z,5.56
2023-02-12T21:21:03.234Z,5.58
2023-02-12T21:23:32.453Z,5.62
2023-02-12T21:26:09.164Z,5.61
2023-02-12T21:28:35.802Z,5.64
2023-02-12T21:31:16.859Z,5.66
2023-02-12T21:33:44.805Z,5.63
2023-02-12T21:36:23.643Z,5.64
2023-02-12T21:38:50.968Z,5.60
2023-02-12T21:41:20.406Z,5.58
2023-02-12T21:43:49.458Z,5.65
2023-02-12T21:46:16.373Z,5.66
2023-02-12T21:48:43.319Z,5.68
2023-02-12T21:51:19.741Z,5.64
2023-02-12T21:53:47.162Z,5.68
2023-02-12T21:56:13.564Z,5.70
2023-02-12T21:58:40.129Z,5.74
2023-02-12T22:01:17.881Z,5.67
2023-02-12T22:03:44.244Z,5.72
2023-02-12T22:06:11.619Z,5.76
2023-02-12T22:08:37.551Z,5.76
2023-02-12T22:11:09.263Z,5.70
2023-02-12T22:13:35.970Z,5.76
2023-02-12T22:16:15.565Z,5.70
2023-02-12T22:18:42.391Z,5.68
2023-02-12T22:21:12.986Z,5.66
2023-02-12T22:23:39.221Z,5.61
2023-02-12T22:26:14.243Z,5.52
2023-02-12T22:28:44.409Z,5.55
2023-02-12T22:31:12.049Z,5.60
2023-02-12T22:33:38.126Z,5.62
2023-02-12T22:36:08.788Z,5.60
2023-02-12T22:38:36.145Z,5.59
2023-02-12T22:41:02.638Z,5.56
2023-02-12T22:43:29.579Z,5.51
2023-02-12T22:45:55.767Z,5.56
2023-02-12T22:48:22.413Z,5.55
2023-02-12T22:50:48.219Z,5.52
2023-02-12T22:53:13.983Z,5.56
2023-02-12T22:55:39.914Z,5.50
2023-02-12T22:58:05.823Z,5.56
2023-02-12T23:00:31.762Z,5.59
2023-02-12T23:02:57.641Z,5.52
2023-02-12T23:05:23.574Z,5.45
2023-02-12T23:07:49.375Z,5.39
2023-02-12T23:10:15.216Z,5.36
2023-02-12T23:12:41.171Z,5.33
2023-02-12T23:15:07.179Z,5.34
2023-02-12T23:17:33.018Z,5.30
2023-02-12T23:19:58.912Z,5.28
2023-02-12T23:22:24.845Z,5.15
2023-02-12T23:24:51.084Z,5.20
2023-02-12T23:27:16.985Z,5.25
2023-02-12T23:29:42.819Z,5.21
2023-02-12T23:32:08.712Z,5.26
2023-02-12T23:34:34.593Z,5.28
2023-02-12T23:37:00.451Z,5.31
2023-02-12T23:39:26.308Z,5.20
2023-02-12T23:41:52.161Z,5.25
2023-02-12T23:44:17.990Z,5.32
2023-02-12T23:46:43.924Z,5.21
2023-02-12T23:49:09.814Z,5.26
2023-02-12T23:51:35.625Z,5.18
2023-02-12T23:54:01.543Z,5.12
2023-02-12T23:56:27.640Z,5.07
2023-02-12T23:58:56.831Z,5.00
